Shipshewana, IN (46565)

3:15 PM EST on January 17, 2017 (GMT -0500)
North of Bristol | | Change Station

Elev 889 ft 41.75 °N, 85.76 °W | Updated 6 seconds ago

Fog
Fog
41.0 °F
Feels Like 41 °F
N
0.2
Wind Variable Wind from NW
Gusts 2.5 mph

Today
High -- | Low -- °F
--% Chance of Precip.
Yesterday
High -- | Low -- °F
Precip. -- in
Pressure 29.83 in
Visibility 1.5 miles
Clouds Overcast 300 ft
Windchill 41 °F
Dew Point 40 °F
Humidity 97%
Rainfall 0.20 in
Snow Depth Not available.
8:05 AM 5:39 PM
Waning Gibbous, 70% visible
METAR KIRS 171955Z AUTO 27009KT 1 1/2SM BR OVC003 04/04 A2983 RMK AO2 T00430042
Pressure 29.83 in
Visibility 1.5 miles
Clouds Overcast 300 ft
Windchill 41 °F
Dew Point 40 °F
Humidity 97%
Rainfall 0.20 in
Snow Depth Not available.
8:05 AM 5:39 PM
Waning Gibbous, 70% visible
METAR KIRS 171955Z AUTO 27009KT 1 1/2SM BR OVC003 04/04 A2983 RMK AO2 T00430042

Get Your Daily Forecast Email!

Thanks for signing up!

Be on the lookout for a verification email in your inbox.

You'll start receiving the daily forecast at 8 AM.

×

10-Day Weather Forecast

Almanac

Astronomy

Jan. 17, 2017 Rise Set
Actual Time
Civil Twilight
Nautical Twilight
Astronomical Twilight
Moon
Length of Visible Light
Length of Day
Tomorrow will be .
, % of the Moon is Illuminated

Today's Extremes

State Highs State Lows

Community

WunderPhotos

Upload Photos

1,962,540 photos uploaded!

WunderBlog® & News

Nearby

Air Quality

  Air Quality AQ Index Pollutant
Not available.

Snow Depth

Station Depth Elevation

Earthquake Activity

City Distance Mag. Time & Date
Minimum magnitude displayed is 2.5.

Coastal Water Temperatures

Place Temperature

Stations

Nearby Weather Stations

Station Location Temp. Windchill Dew Point Humidity Wind Precip. Elev Updated Type
                   

Watches & Warnings

There are currently no watches in effect.